createdAt,value
2017-06-19T00:13:29.853Z,81.00
2017-06-19T00:15:58.086Z,81.80
2017-06-19T00:18:26.326Z,81.10
2017-06-19T00:41:34.468Z,82.80
2017-06-19T00:44:02.731Z,83.10
2017-06-19T00:55:31.779Z,83.70
2017-06-19T00:58:00.026Z,84.00
2017-06-19T01:00:54.305Z,84.50
2017-06-19T01:03:22.556Z,85.80
2017-06-19T01:05:50.805Z,87.70
2017-06-19T01:08:19.110Z,88.40
2017-06-19T01:10:47.370Z,86.90
2017-06-19T01:13:15.628Z,86.40
2017-06-19T01:15:44.125Z,86.20
2017-06-19T01:18:12.387Z,86.40
2017-06-19T01:20:40.614Z,87.80
2017-06-19T01:56:11.600Z,88.70
2017-06-19T02:20:00.486Z,90.20
2017-06-19T02:22:29.318Z,90.60
2017-06-19T02:24:57.578Z,90.50
2017-06-19T02:36:26.627Z,90.30
2017-06-19T02:38:54.890Z,91.10
2017-06-19T02:41:23.176Z,91.60
2017-06-19T02:43:51.446Z,91.10
2017-06-19T02:46:19.679Z,91.00
2017-06-19T02:48:47.954Z,91.20
2017-06-19T04:03:14.694Z,93.30
2017-06-19T04:05:42.939Z,93.60
2017-06-19T04:08:11.175Z,94.50
2017-06-19T04:10:39.470Z,97.10
2017-06-19T04:13:07.708Z,97.20
2017-06-19T05:24:41.288Z,99.90
2017-06-19T05:27:09.578Z,99.90
2017-06-19T05:29:37.871Z,99.90
2017-06-19T05:32:06.150Z,99.90
2017-06-19T05:34:34.394Z,99.90
2017-06-19T05:37:02.702Z,99.90
2017-06-19T05:39:30.952Z,99.90
2017-06-19T05:41:59.202Z,99.90
2017-06-19T05:44:27.474Z,99.90
2017-06-19T05:46:55.722Z,99.90
2017-06-19T05:49:23.999Z,99.90
2017-06-19T05:51:52.233Z,99.90
2017-06-19T07:06:21.945Z,96.70
2017-06-19T07:08:50.250Z,95.70
2017-06-19T07:20:19.249Z,95.60
2017-06-19T07:22:47.552Z,95.80
2017-06-19T07:40:15.743Z,94.70
2017-06-19T07:42:44.005Z,95.90
2017-06-19T08:18:14.773Z,90.00
2017-06-19T08:20:43.023Z,90.70
2017-06-19T08:23:28.240Z,90.30
2017-06-19T08:25:56.498Z,90.10
2017-06-19T08:28:24.746Z,87.30
2017-06-19T08:30:53.043Z,87.30
2017-06-19T08:33:21.306Z,88.50
2017-06-19T08:35:49.557Z,86.40
2017-06-19T08:38:17.860Z,84.40
2017-06-19T08:40:46.105Z,84.90
2017-06-19T08:43:14.349Z,86.60
2017-06-19T08:45:42.621Z,85.60
2017-06-19T11:36:37.578Z,65.30
2017-06-19T12:35:53.545Z,57.10
2017-06-19T12:38:21.936Z,57.70
2017-06-19T12:40:50.181Z,55.90
2017-06-19T14:19:53.689Z,41.80
2017-06-19T14:22:21.924Z,39.30
2017-06-19T14:24:50.342Z,38.20
2017-06-19T14:27:18.591Z,37.40
2017-06-19T14:29:46.880Z,37.70
2017-06-19T14:32:15.134Z,38.40
2017-06-19T14:34:43.394Z,34.90
2017-06-19T14:37:11.914Z,34.90
2017-06-19T17:09:35.827Z,31.00
2017-06-19T17:12:04.080Z,30.80
2017-06-19T17:14:32.358Z,29.30
2017-06-19T17:35:01.849Z,33.60
2017-06-19T17:37:30.099Z,34.20
2017-06-19T17:39:58.381Z,33.80
2017-06-19T17:42:26.637Z,33.80
2017-06-19T17:44:54.954Z,34.30
2017-06-19T18:05:24.827Z,35.90
2017-06-19T18:25:53.686Z,39.00
2017-06-19T18:40:21.186Z,40.10
2017-06-19T18:42:49.449Z,39.00
2017-06-19T18:45:17.727Z,40.50
2017-06-19T18:47:46.065Z,38.50
2017-06-19T18:50:14.318Z,37.80
2017-06-19T18:52:42.603Z,37.20
2017-06-19T18:55:10.860Z,37.90
2017-06-19T18:57:39.168Z,40.90
2017-06-19T19:00:07.455Z,42.90
2017-06-19T19:02:54.832Z,42.50
2017-06-19T19:05:23.125Z,41.80
2017-06-19T19:07:51.386Z,41.40
2017-06-19T19:28:21.825Z,46.80
2017-06-19T19:30:50.096Z,46.80
2017-06-19T19:33:18.340Z,47.60
2017-06-19T19:35:46.655Z,45.80
2017-06-19T19:38:34.543Z,44.60
2017-06-19T19:41:02.855Z,44.00
2017-06-19T19:43:31.143Z,45.20
2017-06-19T20:04:00.761Z,44.00
2017-06-19T20:09:28.827Z,43.70
2017-06-19T20:11:57.119Z,43.80
2017-06-19T20:14:25.360Z,43.50
2017-06-19T20:16:53.671Z,43.80
2017-06-19T20:31:23.163Z,46.20
2017-06-19T20:57:58.987Z,50.40
2017-06-19T21:03:26.949Z,48.30
2017-06-19T21:05:55.208Z,47.40
2017-06-19T21:08:23.559Z,47.50
2017-06-19T21:25:52.616Z,49.60
2017-06-19T21:28:20.869Z,49.50
2017-06-19T21:30:49.119Z,50.50
2017-06-19T21:33:17.406Z,50.40
2017-06-19T21:35:45.712Z,50.70
2017-06-19T22:11:41.868Z,54.50
2017-06-19T22:26:11.391Z,55.20
2017-06-19T22:28:39.641Z,56.90
2017-06-19T22:31:07.928Z,59.30
2017-06-19T22:42:55.799Z,62.90
2017-06-19T23:51:26.931Z,63.50
2017-06-19T23:53:55.172Z,64.80
